Yatesville, GA

8:12 AM EST on December 21, 2014 (GMT -0500)
Thomaston-Upson County | Change Station
CLOSE
Current Station
Airport
Location: Thomaston,
Elevation: 797 ft
Nearby Weather Stations

Elev 797 ft 32.95 °N, 84.26 °W | Updated 17 minutes ago

Overcast
Overcast
50 °F
Feels Like 50 °F
N
5
Wind Variable Wind from East

Today
High -- | Low -- °F
--% Chance of Precip.
Yesterday
High -- | Low -- °F
Precip. -- in
7:35 AM 5:34 PM
Waning Crescent, 0% visible
Pressure 30.19 in
Visibility 4.0 miles
Clouds Overcast 300 ft
Dew Point 48 °F
Humidity 94%
Rainfall 0.00 in
Snow Depth Not available.
UV 0 out of 12
Pollen .40 out of 12
Air Quality Not available.
Flu Activity Not available.
METAR KOPN 211255Z AUTO 08004KT 4SM BR OVC003 10/09 A3019 RMK AO2

More Conditions Fewer Conditions

Pressure 30.19 in
Visibility 4.0 miles
Clouds Overcast 300 ft
Dew Point 48 °F
Humidity 94%
Rainfall 0.00 in
Snow Depth Not available.
UV 0 out of 12
Pollen .40 out of 12
Air Quality Not available.
Flu Activity Not available.
METAR KOPN 211255Z AUTO 08004KT 4SM BR OVC003 10/09 A3019 RMK AO2

More Conditions Fewer Conditions

10-Day Weather Forecast

Almanac

Astronomy

Dec. 21, 2014 Rise Set
Actual Time
Civil Twilight
Nautical Twilight
Astronomical Twilight
Moon
Length of Visible Light
Length of Day
Tomorrow will be .
, % of the Moon is Illuminated

Today's Extremes

State Highs State Lows

Community

WunderPhotos

Upload Photos

1,779,373 photos uploaded!

WunderBlogs® & News

Nearby

Air Quality

  Air Quality AQ Index Pollutant
Not available.

Snow Depth

Station Depth Elevation

Earthquake Activity

City Distance Mag. Time & Date
Minimum magnitude displayed is 2.5.

Coastal Water Temperatures

Place Temperature

Nearby Weather Stations